WP4MXZ San Sebastian PR US current weather conditions

sailwx.info

Wind from 172

Air temperature 23.3° C
Dewpoint 23.3° C

Last reported at 2015-Aug-29 08:34 UTC.
Time now 2015-Aug-29 09:27 UTC

Location: N 18°20' W 067°00'.
View on Google Maps.

See reports from other nearby stations

  
Tides and Currents Weather Stations Pressure Air Temp Water Temp Dewpoint Dewpoint Depression Visibility Wind Speed Wind Dir Waves Ship Positions
date/time (UTC)wind fromknots sea level pressurealtimeterstation pressurevisibilityair tempwater tempwave heightnotes
2015-Aug-29 08:34 172 23.3
2015-Aug-29 08:04 173 23.3
2015-Aug-29 07:33 173 23.3
2015-Aug-29 07:03 173 23.3
2015-Aug-29 06:33 173 23.9
2015-Aug-29 06:03 173 23.9
2015-Aug-29 05:33 173 23.9
2015-Aug-29 05:03 173 23.9
2015-Aug-29 04:33 173 24.4
2015-Aug-29 04:03 173 24.4
2015-Aug-29 03:34 173 25.0
2015-Aug-29 03:03 173 26.7
2015-Aug-29 02:03 223 1 gusting 5 26.7
2015-Aug-29 01:33 150 4 gusting 6 25.6
2015-Aug-29 01:03 217 25.6
2015-Aug-29 00:33 229 1 gusting 4 26.7
2015-Aug-29 00:03 191 1 gusting 6 26.1
2015-Aug-28 23:33 187 0 gusting 2 25.0
2015-Aug-28 23:03 187 25.0
2015-Aug-28 22:33 152 25.0
2015-Aug-28 22:03 152 25.0
2015-Aug-28 21:34 152 25.6
2015-Aug-28 21:03 152 25.6
2015-Aug-28 20:33 25.0
2015-Aug-28 20:03 352 25.0
2015-Aug-28 19:34 152 25.6
2015-Aug-28 19:04 152 25.6
2015-Aug-28 18:33 159 1 gusting 7 24.4
2015-Aug-28 18:03 154 23.9
2015-Aug-28 17:33 215 6 gusting 12 25.0
2015-Aug-28 17:03 232 11 gusting 19 28.9
2015-Aug-28 16:33 207 2 gusting 13 29.4
2015-Aug-28 16:03 186 6 gusting 11 29.4
2015-Aug-28 15:33 163 4 gusting 6 29.4
2015-Aug-28 15:03 158 28.9
2015-Aug-28 14:33 189 1 gusting 13 28.9
2015-Aug-28 14:03 198 5 gusting 16 28.3
2015-Aug-28 13:33 130 3 gusting 9 28.3
2015-Aug-28 13:03 171 3 gusting 13 27.8
2015-Aug-28 12:33 162 0 gusting 8 27.2
2015-Aug-28 12:03 208 1 gusting 5 26.7
2015-Aug-28 11:33 126 0 gusting 8 26.1
2015-Aug-28 11:03 212 2 gusting 6 26.1
2015-Aug-28 10:33 159 1 gusting 6 26.1
2015-Aug-28 10:03 155 26.1
2015-Aug-28 09:33 173 4 gusting 12 26.1
2015-Aug-28 09:03 122 26.1
2015-Aug-28 08:33 146 3 gusting 6 26.1
2015-Aug-28 08:03 134 25.6
2015-Aug-28 07:34 186 1 gusting 4 25.6
2015-Aug-28 07:03 147 1 gusting 6 25.6
2015-Aug-28 06:33 192 1 gusting 4 25.6
2015-Aug-28 06:04 152 2 gusting 6 25.6
2015-Aug-28 05:34 140 0 gusting 5 25.6
2015-Aug-28 05:03 149 1 gusting 6 26.1
2015-Aug-28 04:34 145 4 gusting 8 26.1
2015-Aug-28 04:04 061 0 gusting 7 26.7
2015-Aug-28 03:33 199 3 gusting 11 26.7
2015-Aug-28 03:04 157 2 gusting 9 26.7
2015-Aug-28 02:33 136 2 gusting 6 26.1
2015-Aug-28 02:03 115 26.7
2015-Aug-28 01:33 123 0 gusting 5 26.7
2015-Aug-28 01:03 117 0 gusting 4 26.7
2015-Aug-28 00:34 143 1 gusting 6 26.7
2015-Aug-28 00:04 128 2 gusting 5 26.7
2015-Aug-27 23:34 167 1 gusting 9 27.2
2015-Aug-27 23:03 126 0 gusting 7 27.2
2015-Aug-27 22:33 132 2 gusting 9 28.3
2015-Aug-27 22:03 141 4 gusting 12 28.3
2015-Aug-27 21:33 128 6 gusting 12 27.8
2015-Aug-27 21:04 147 1 gusting 7 29.4
2015-Aug-27 20:33 146 6 gusting 13 30.6
2015-Aug-27 20:03 143 6 gusting 11 30.6
2015-Aug-27 19:33 125 8 gusting 13 30.6
2015-Aug-27 19:03 155 7 gusting 15 30.0
2015-Aug-27 18:33 144 3 gusting 15 30.0
2015-Aug-27 18:03 159 4 gusting 12 29.4
2015-Aug-27 17:34 155 7 gusting 13 30.0
2015-Aug-27 17:03 096 5 gusting 13 29.4
2015-Aug-27 16:33 129 8 gusting 12 31.1
2015-Aug-27 16:03 143 6 gusting 13 30.6
2015-Aug-27 15:33 160 6 gusting 14 29.4
2015-Aug-27 15:04 107 6 gusting 13 28.9
2015-Aug-27 14:33 150 6 gusting 13 28.9
2015-Aug-27 14:03 161 4 gusting 12 27.8
2015-Aug-27 13:33 090 7 gusting 13 28.9
2015-Aug-27 13:03 160 3 gusting 6 28.9
2015-Aug-27 12:33 049 0 gusting 6 27.2
2015-Aug-27 12:04 096 5 gusting 10 26.7
2015-Aug-27 11:34 146 6 gusting 11 26.7
2015-Aug-27 11:03 157 1 gusting 8 27.2
2015-Aug-27 10:33 110 0 gusting 4 27.2
2015-Aug-27 10:03 086 0 gusting 4 27.2
2015-Aug-27 09:33 085 27.2
2015-Aug-27 09:03 111 3 27.2